sensor_id;sensor_type;location;lat;lon;timestamp;P1;durP1;ratioP1;P2;durP2;ratioP2
10045;SDS011;5063;50.878;4.742;2023-06-10T00:01:42;7.72;;;6.75;;
10045;SDS011;5063;50.878;4.742;2023-06-10T00:04:08;7.35;;;6.65;;
10045;SDS011;5063;50.878;4.742;2023-06-10T00:06:34;6.80;;;6.18;;
10045;SDS011;5063;50.878;4.742;2023-06-10T00:09:06;8.15;;;6.22;;
10045;SDS011;5063;50.878;4.742;2023-06-10T00:11:39;8.57;;;6.35;;
10045;SDS011;5063;50.878;4.742;2023-06-10T00:14:05;6.50;;;5.80;;
10045;SDS011;5063;50.878;4.742;2023-06-10T00:16:31;7.32;;;6.53;;
10045;SDS011;5063;50.878;4.742;2023-06-10T00:18:57;7.50;;;6.38;;
10045;SDS011;5063;50.878;4.742;2023-06-10T00:21:29;7.90;;;6.47;;
10045;SDS011;5063;50.878;4.742;2023-06-10T00:24:05;7.20;;;6.60;;
10045;SDS011;5063;50.878;4.742;2023-06-10T00:26:34;7.38;;;6.55;;
10045;SDS011;5063;50.878;4.742;2023-06-10T00:29:00;8.30;;;6.70;;
10045;SDS011;5063;50.878;4.742;2023-06-10T00:31:26;7.30;;;6.60;;
10045;SDS011;5063;50.878;4.742;2023-06-10T00:33:52;8.40;;;6.43;;
10045;SDS011;5063;50.878;4.742;2023-06-10T00:36:18;6.90;;;6.30;;
10045;SDS011;5063;50.878;4.742;2023-06-10T00:38:44;7.07;;;6.38;;
10045;SDS011;5063;50.878;4.742;2023-06-10T00:41:10;8.43;;;6.35;;
10045;SDS011;5063;50.878;4.742;2023-06-10T00:43:36;7.68;;;6.97;;
10045;SDS011;5063;50.878;4.742;2023-06-10T00:46:01;6.50;;;5.90;;
10045;SDS011;5063;50.878;4.742;2023-06-10T00:48:27;8.90;;;6.60;;
10045;SDS011;5063;50.878;4.742;2023-06-10T00:50:53;10.80;;;6.60;;
10045;SDS011;5063;50.878;4.742;2023-06-10T00:53:20;7.78;;;6.40;;
10045;SDS011;5063;50.878;4.742;2023-06-10T00:55:47;8.68;;;6.97;;
10045;SDS011;5063;50.878;4.742;2023-06-10T00:58:13;8.38;;;6.28;;
10045;SDS011;5063;50.878;4.742;2023-06-10T01:00:40;8.32;;;7.47;;
10045;SDS011;5063;50.878;4.742;2023-06-10T01:03:06;8.32;;;7.25;;
10045;SDS011;5063;50.878;4.742;2023-06-10T01:05:33;7.72;;;6.75;;
10045;SDS011;5063;50.878;4.742;2023-06-10T01:10:43;7.03;;;6.40;;
10045;SDS011;5063;50.878;4.742;2023-06-10T01:13:24;7.95;;;7.20;;
10045;SDS011;5063;50.878;4.742;2023-06-10T01:15:54;11.68;;;6.63;;
10045;SDS011;5063;50.878;4.742;2023-06-10T01:18:20;7.55;;;6.72;;
10045;SDS011;5063;50.878;4.742;2023-06-10T01:20:47;7.43;;;6.63;;
10045;SDS011;5063;50.878;4.742;2023-06-10T01:23:14;7.60;;;6.95;;
10045;SDS011;5063;50.878;4.742;2023-06-10T01:28:58;8.10;;;7.30;;
10045;SDS011;5063;50.878;4.742;2023-06-10T01:31:30;9.27;;;7.97;;
10045;SDS011;5063;50.878;4.742;2023-06-10T01:34:09;7.82;;;7.03;;
10045;SDS011;5063;50.878;4.742;2023-06-10T01:36:38;9.90;;;7.30;;
10045;SDS011;5063;50.878;4.742;2023-06-10T01:39:05;7.87;;;7.07;;
10045;SDS011;5063;50.878;4.742;2023-06-10T01:41:33;7.78;;;7.07;;
10045;SDS011;5063;50.878;4.742;2023-06-10T01:44:00;7.87;;;6.97;;
10045;SDS011;5063;50.878;4.742;2023-06-10T01:46:26;9.40;;;7.37;;
10045;SDS011;5063;50.878;4.742;2023-06-10T01:48:52;10.20;;;6.97;;
10045;SDS011;5063;50.878;4.742;2023-06-10T01:51:17;8.27;;;7.17;;
10045;SDS011;5063;50.878;4.742;2023-06-10T01:53:43;8.30;;;7.50;;
10045;SDS011;5063;50.878;4.742;2023-06-10T01:56:09;8.15;;;7.45;;
10045;SDS011;5063;50.878;4.742;2023-06-10T01:58:35;9.87;;;7.17;;
10045;SDS011;5063;50.878;4.742;2023-06-10T02:01:00;8.43;;;7.57;;
10045;SDS011;5063;50.878;4.742;2023-06-10T02:03:26;8.63;;;7.30;;
10045;SDS011;5063;50.878;4.742;2023-06-10T02:05:52;10.43;;;8.30;;
10045;SDS011;5063;50.878;4.742;2023-06-10T02:08:18;8.97;;;7.33;;
10045;SDS011;5063;50.878;4.742;2023-06-10T02:10:43;8.83;;;7.93;;
10045;SDS011;5063;50.878;4.742;2023-06-10T02:13:09;8.27;;;7.47;;
10045;SDS011;5063;50.878;4.742;2023-06-10T02:15:35;8.33;;;7.53;;
10045;SDS011;5063;50.878;4.742;2023-06-10T02:18:01;13.00;;;8.30;;
10045;SDS011;5063;50.878;4.742;2023-06-10T02:20:27;8.80;;;7.60;;
10045;SDS011;5063;50.878;4.742;2023-06-10T02:22:53;11.07;;;7.83;;
10045;SDS011;5063;50.878;4.742;2023-06-10T02:25:19;9.90;;;8.20;;
10045;SDS011;5063;50.878;4.742;2023-06-10T02:27:45;8.30;;;7.50;;
10045;SDS011;5063;50.878;4.742;2023-06-10T02:30:10;10.70;;;8.63;;
10045;SDS011;5063;50.878;4.742;2023-06-10T02:32:37;7.83;;;7.03;;
10045;SDS011;5063;50.878;4.742;2023-06-10T02:35:03;9.70;;;8.13;;
10045;SDS011;5063;50.878;4.742;2023-06-10T02:37:30;9.37;;;7.53;;
10045;SDS011;5063;50.878;4.742;2023-06-10T02:39:56;8.63;;;7.80;;
10045;SDS011;5063;50.878;4.742;2023-06-10T02:42:21;8.93;;;8.03;;
10045;SDS011;5063;50.878;4.742;2023-06-10T02:44:47;12.70;;;8.30;;
10045;SDS011;5063;50.878;4.742;2023-06-10T02:47:13;9.63;;;8.73;;
10045;SDS011;5063;50.878;4.742;2023-06-10T02:49:39;9.90;;;8.67;;
10045;SDS011;5063;50.878;4.742;2023-06-10T02:52:05;9.80;;;8.77;;
10045;SDS011;5063;50.878;4.742;2023-06-10T02:54:32;9.90;;;8.97;;
10045;SDS011;5063;50.878;4.742;2023-06-10T02:56:57;11.03;;;9.07;;
10045;SDS011;5063;50.878;4.742;2023-06-10T02:59:23;11.27;;;8.70;;
10045;SDS011;5063;50.878;4.742;2023-06-10T03:01:49;9.73;;;8.70;;
10045;SDS011;5063;50.878;4.742;2023-06-10T03:04:15;10.20;;;9.03;;
10045;SDS011;5063;50.878;4.742;2023-06-10T03:06:41;9.93;;;8.20;;
10045;SDS011;5063;50.878;4.742;2023-06-10T03:09:07;9.87;;;8.50;;
10045;SDS011;5063;50.878;4.742;2023-06-10T03:11:33;15.03;;;8.93;;
10045;SDS011;5063;50.878;4.742;2023-06-10T03:13:59;9.43;;;8.43;;
10045;SDS011;5063;50.878;4.742;2023-06-10T03:16:24;9.50;;;8.60;;
10045;SDS011;5063;50.878;4.742;2023-06-10T03:18:50;9.80;;;8.80;;
10045;SDS011;5063;50.878;4.742;2023-06-10T03:21:16;9.93;;;8.27;;
10045;SDS011;5063;50.878;4.742;2023-06-10T03:23:41;10.03;;;8.60;;
10045;SDS011;5063;50.878;4.742;2023-06-10T03:26:07;13.47;;;9.07;;
10045;SDS011;5063;50.878;4.742;2023-06-10T03:28:35;9.93;;;8.83;;
10045;SDS011;5063;50.878;4.742;2023-06-10T03:31:01;9.47;;;8.40;;
10045;SDS011;5063;50.878;4.742;2023-06-10T03:33:26;9.57;;;8.67;;
10045;SDS011;5063;50.878;4.742;2023-06-10T03:35:52;10.17;;;8.77;;
10045;SDS011;5063;50.878;4.742;2023-06-10T03:38:18;9.90;;;8.80;;
10045;SDS011;5063;50.878;4.742;2023-06-10T03:40:44;11.07;;;9.07;;
10045;SDS011;5063;50.878;4.742;2023-06-10T03:43:10;10.53;;;9.27;;
10045;SDS011;5063;50.878;4.742;2023-06-10T03:45:36;9.60;;;8.33;;
10045;SDS011;5063;50.878;4.742;2023-06-10T03:48:01;9.73;;;8.80;;
10045;SDS011;5063;50.878;4.742;2023-06-10T03:50:28;9.33;;;8.43;;
10045;SDS011;5063;50.878;4.742;2023-06-10T03:52:54;11.13;;;10.13;;
10045;SDS011;5063;50.878;4.742;2023-06-10T03:55:20;9.90;;;8.90;;
10045;SDS011;5063;50.878;4.742;2023-06-10T03:57:47;11.23;;;8.80;;
10045;SDS011;5063;50.878;4.742;2023-06-10T04:00:14;11.80;;;9.80;;
10045;SDS011;5063;50.878;4.742;2023-06-10T04:02:42;10.23;;;9.17;;
10045;SDS011;5063;50.878;4.742;2023-06-10T04:05:12;10.63;;;9.70;;
10045;SDS011;5063;50.878;4.742;2023-06-10T04:07:39;9.83;;;8.53;;
10045;SDS011;5063;50.878;4.742;2023-06-10T04:10:09;11.83;;;8.93;;
10045;SDS011;5063;50.878;4.742;2023-06-10T04:12:38;10.47;;;8.97;;
10045;SDS011;5063;50.878;4.742;2023-06-10T04:15:04;10.60;;;9.10;;
10045;SDS011;5063;50.878;4.742;2023-06-10T04:17:30;9.67;;;8.30;;
10045;SDS011;5063;50.878;4.742;2023-06-10T04:19:56;11.20;;;9.23;;
10045;SDS011;5063;50.878;4.742;2023-06-10T04:22:23;13.67;;;9.00;;
10045;SDS011;5063;50.878;4.742;2023-06-10T04:24:49;10.43;;;9.33;;
10045;SDS011;5063;50.878;4.742;2023-06-10T04:27:14;10.30;;;9.37;;
10045;SDS011;5063;50.878;4.742;2023-06-10T04:29:40;9.57;;;8.63;;
10045;SDS011;5063;50.878;4.742;2023-06-10T04:32:06;9.93;;;8.97;;
10045;SDS011;5063;50.878;4.742;2023-06-10T04:34:33;9.30;;;8.40;;
10045;SDS011;5063;50.878;4.742;2023-06-10T04:36:59;9.67;;;8.63;;
10045;SDS011;5063;50.878;4.742;2023-06-10T04:39:25;9.90;;;8.50;;
10045;SDS011;5063;50.878;4.742;2023-06-10T04:41:51;11.30;;;9.27;;
10045;SDS011;5063;50.878;4.742;2023-06-10T04:44:17;10.20;;;9.20;;
10045;SDS011;5063;50.878;4.742;2023-06-10T04:46:43;9.67;;;8.77;;
10045;SDS011;5063;50.878;4.742;2023-06-10T04:49:10;10.50;;;9.50;;
10045;SDS011;5063;50.878;4.742;2023-06-10T04:51:39;13.00;;;9.83;;
10045;SDS011;5063;50.878;4.742;2023-06-10T04:54:05;10.50;;;9.50;;
10045;SDS011;5063;50.878;4.742;2023-06-10T04:56:31;10.03;;;9.13;;
10045;SDS011;5063;50.878;4.742;2023-06-10T04:58:58;11.47;;;9.33;;
10045;SDS011;5063;50.878;4.742;2023-06-10T05:01:24;9.43;;;8.63;;
10045;SDS011;5063;50.878;4.742;2023-06-10T05:03:50;10.43;;;9.33;;
10045;SDS011;5063;50.878;4.742;2023-06-10T05:06:15;11.53;;;9.63;;
10045;SDS011;5063;50.878;4.742;2023-06-10T05:08:41;10.93;;;8.90;;
10045;SDS011;5063;50.878;4.742;2023-06-10T05:11:07;9.45;;;8.50;;
10045;SDS011;5063;50.878;4.742;2023-06-10T05:13:33;10.38;;;8.43;;
10045;SDS011;5063;50.878;4.742;2023-06-10T05:15:59;9.73;;;8.82;;
10045;SDS011;5063;50.878;4.742;2023-06-10T05:18:25;9.73;;;8.85;;
10045;SDS011;5063;50.878;4.742;2023-06-10T05:20:51;9.10;;;8.20;;
10045;SDS011;5063;50.878;4.742;2023-06-10T05:23:19;10.68;;;8.32;;
10045;SDS011;5063;50.878;4.742;2023-06-10T05:25:45;9.63;;;8.73;;
10045;SDS011;5063;50.878;4.742;2023-06-10T05:28:11;8.70;;;7.90;;
10045;SDS011;5063;50.878;4.742;2023-06-10T05:30:37;9.52;;;8.52;;
10045;SDS011;5063;50.878;4.742;2023-06-10T05:33:03;9.48;;;8.50;;
10045;SDS011;5063;50.878;4.742;2023-06-10T05:35:30;8.68;;;7.68;;
10045;SDS011;5063;50.878;4.742;2023-06-10T05:37:56;9.23;;;8.15;;
10045;SDS011;5063;50.878;4.742;2023-06-10T05:40:22;10.27;;;8.90;;
10045;SDS011;5063;50.878;4.742;2023-06-10T05:42:48;9.90;;;8.90;;
10045;SDS011;5063;50.878;4.742;2023-06-10T05:45:14;8.43;;;7.72;;
10045;SDS011;5063;50.878;4.742;2023-06-10T05:47:40;10.70;;;9.00;;
10045;SDS011;5063;50.878;4.742;2023-06-10T05:50:06;8.75;;;7.78;;
10045;SDS011;5063;50.878;4.742;2023-06-10T05:52:33;9.10;;;8.18;;
10045;SDS011;5063;50.878;4.742;2023-06-10T05:55:05;9.52;;;7.95;;
10045;SDS011;5063;50.878;4.742;2023-06-10T05:57:31;8.52;;;7.80;;
10045;SDS011;5063;50.878;4.742;2023-06-10T05:59:57;8.05;;;7.30;;
10045;SDS011;5063;50.878;4.742;2023-06-10T06:02:23;10.30;;;7.80;;
10045;SDS011;5063;50.878;4.742;2023-06-10T06:04:49;7.82;;;7.13;;
10045;SDS011;5063;50.878;4.742;2023-06-10T06:07:14;7.60;;;6.80;;
10045;SDS011;5063;50.878;4.742;2023-06-10T06:09:40;8.40;;;7.50;;
10045;SDS011;5063;50.878;4.742;2023-06-10T06:12:06;7.50;;;6.50;;
10045;SDS011;5063;50.878;4.742;2023-06-10T06:14:36;8.63;;;7.65;;
10045;SDS011;5063;50.878;4.742;2023-06-10T06:17:04;10.60;;;7.30;;
10045;SDS011;5063;50.878;4.742;2023-06-10T06:19:30;7.38;;;6.68;;
10045;SDS011;5063;50.878;4.742;2023-06-10T06:21:55;8.25;;;7.45;;
10045;SDS011;5063;50.878;4.742;2023-06-10T06:24:21;8.65;;;7.78;;
10045;SDS011;5063;50.878;4.742;2023-06-10T06:26:47;7.88;;;6.95;;
10045;SDS011;5063;50.878;4.742;2023-06-10T06:29:13;10.02;;;7.30;;
10045;SDS011;5063;50.878;4.742;2023-06-10T06:31:39;7.78;;;6.90;;
10045;SDS011;5063;50.878;4.742;2023-06-10T06:34:04;7.15;;;6.43;;
10045;SDS011;5063;50.878;4.742;2023-06-10T06:36:30;8.48;;;7.22;;
10045;SDS011;5063;50.878;4.742;2023-06-10T06:38:56;8.60;;;7.63;;
10045;SDS011;5063;50.878;4.742;2023-06-10T06:41:24;8.48;;;7.65;;
10045;SDS011;5063;50.878;4.742;2023-06-10T06:43:53;7.05;;;6.45;;
10045;SDS011;5063;50.878;4.742;2023-06-10T06:46:19;8.50;;;6.55;;
10045;SDS011;5063;50.878;4.742;2023-06-10T06:48:46;7.72;;;6.55;;
10045;SDS011;5063;50.878;4.742;2023-06-10T06:51:12;8.77;;;6.53;;
10045;SDS011;5063;50.878;4.742;2023-06-10T06:53:38;6.90;;;6.30;;
10045;SDS011;5063;50.878;4.742;2023-06-10T06:56:09;8.10;;;6.72;;
10045;SDS011;5063;50.878;4.742;2023-06-10T06:58:36;11.68;;;7.22;;
10045;SDS011;5063;50.878;4.742;2023-06-10T07:01:01;9.20;;;6.85;;
10045;SDS011;5063;50.878;4.742;2023-06-10T07:03:27;7.47;;;6.75;;
10045;SDS011;5063;50.878;4.742;2023-06-10T07:05:53;8.30;;;7.47;;
10045;SDS011;5063;50.878;4.742;2023-06-10T07:08:19;8.30;;;6.80;;
10045;SDS011;5063;50.878;4.742;2023-06-10T07:10:45;9.02;;;6.55;;
10045;SDS011;5063;50.878;4.742;2023-06-10T07:13:10;7.22;;;6.63;;
10045;SDS011;5063;50.878;4.742;2023-06-10T07:15:36;7.72;;;6.93;;
10045;SDS011;5063;50.878;4.742;2023-06-10T07:18:04;6.95;;;6.30;;
10045;SDS011;5063;50.878;4.742;2023-06-10T07:20:30;8.18;;;7.10;;
10045;SDS011;5063;50.878;4.742;2023-06-10T07:22:55;6.82;;;6.22;;
10045;SDS011;5063;50.878;4.742;2023-06-10T07:25:21;7.10;;;6.50;;
10045;SDS011;5063;50.878;4.742;2023-06-10T07:27:47;7.45;;;6.70;;
10045;SDS011;5063;50.878;4.742;2023-06-10T07:30:13;7.82;;;6.30;;
10045;SDS011;5063;50.878;4.742;2023-06-10T07:32:39;9.73;;;7.05;;
10045;SDS011;5063;50.878;4.742;2023-06-10T07:35:07;7.55;;;6.75;;
10045;SDS011;5063;50.878;4.742;2023-06-10T07:37:34;7.47;;;6.00;;
10045;SDS011;5063;50.878;4.742;2023-06-10T07:39:59;7.38;;;6.18;;
10045;SDS011;5063;50.878;4.742;2023-06-10T07:42:25;7.53;;;6.10;;
10045;SDS011;5063;50.878;4.742;2023-06-10T07:44:51;8.48;;;6.50;;
10045;SDS011;5063;50.878;4.742;2023-06-10T07:47:20;7.45;;;6.63;;
10045;SDS011;5063;50.878;4.742;2023-06-10T07:49:45;6.20;;;5.70;;
10045;SDS011;5063;50.878;4.742;2023-06-10T07:52:11;7.03;;;6.32;;
10045;SDS011;5063;50.878;4.742;2023-06-10T07:54:37;7.13;;;6.43;;
10045;SDS011;5063;50.878;4.742;2023-06-10T07:57:02;6.63;;;5.90;;
10045;SDS011;5063;50.878;4.742;2023-06-10T07:59:28;6.85;;;6.25;;
10045;SDS011;5063;50.878;4.742;2023-06-10T08:01:54;7.00;;;6.30;;
10045;SDS011;5063;50.878;4.742;2023-06-10T08:04:20;7.00;;;6.25;;
10045;SDS011;5063;50.878;4.742;2023-06-10T08:06:45;6.65;;;6.03;;
10045;SDS011;5063;50.878;4.742;2023-06-10T08:09:11;6.38;;;5.10;;
10045;SDS011;5063;50.878;4.742;2023-06-10T08:11:40;7.28;;;6.32;;
10045;SDS011;5063;50.878;4.742;2023-06-10T08:14:05;6.85;;;5.90;;
10045;SDS011;5063;50.878;4.742;2023-06-10T08:16:31;6.63;;;5.80;;
10045;SDS011;5063;50.878;4.742;2023-06-10T08:18:57;7.15;;;5.40;;
10045;SDS011;5063;50.878;4.742;2023-06-10T08:21:23;6.75;;;5.45;;
10045;SDS011;5063;50.878;4.742;2023-06-10T08:23:52;5.72;;;5.22;;
10045;SDS011;5063;50.878;4.742;2023-06-10T08:26:19;7.65;;;5.25;;
10045;SDS011;5063;50.878;4.742;2023-06-10T08:28:44;5.43;;;5.00;;
10045;SDS011;5063;50.878;4.742;2023-06-10T08:31:10;5.85;;;4.90;;
10045;SDS011;5063;50.878;4.742;2023-06-10T08:33:36;6.18;;;5.57;;
10045;SDS011;5063;50.878;4.742;2023-06-10T08:36:02;6.82;;;4.90;;
10045;SDS011;5063;50.878;4.742;2023-06-10T08:38:27;5.65;;;5.07;;
10045;SDS011;5063;50.878;4.742;2023-06-10T08:40:56;5.55;;;5.07;;
10045;SDS011;5063;50.878;4.742;2023-06-10T08:46:45;5.57;;;5.07;;
10045;SDS011;5063;50.878;4.742;2023-06-10T08:49:15;5.70;;;5.20;;
10045;SDS011;5063;50.878;4.742;2023-06-10T08:51:43;5.68;;;5.15;;
10045;SDS011;5063;50.878;4.742;2023-06-10T08:54:14;5.65;;;4.40;;
10045;SDS011;5063;50.878;4.742;2023-06-10T08:56:44;5.05;;;4.55;;
10045;SDS011;5063;50.878;4.742;2023-06-10T08:59:14;5.65;;;4.63;;
10045;SDS011;5063;50.878;4.742;2023-06-10T09:01:44;4.53;;;4.13;;
10045;SDS011;5063;50.878;4.742;2023-06-10T09:04:10;5.57;;;5.07;;
10045;SDS011;5063;50.878;4.742;2023-06-10T09:06:36;5.22;;;4.82;;
10045;SDS011;5063;50.878;4.742;2023-06-10T09:09:04;7.20;;;5.20;;
10045;SDS011;5063;50.878;4.742;2023-06-10T09:11:31;9.63;;;5.50;;
10045;SDS011;5063;50.878;4.742;2023-06-10T09:13:57;5.40;;;4.90;;
10045;SDS011;5063;50.878;4.742;2023-06-10T09:16:24;4.85;;;4.45;;
10045;SDS011;5063;50.878;4.742;2023-06-10T09:18:50;7.07;;;5.38;;
10045;SDS011;5063;50.878;4.742;2023-06-10T09:21:23;5.55;;;5.07;;
10045;SDS011;5063;50.878;4.742;2023-06-10T09:23:50;6.03;;;5.53;;
10045;SDS011;5063;50.878;4.742;2023-06-10T09:26:16;5.90;;;5.30;;
10045;SDS011;5063;50.878;4.742;2023-06-10T09:28:47;6.20;;;5.55;;
10045;SDS011;5063;50.878;4.742;2023-06-10T09:31:15;7.70;;;5.78;;
10045;SDS011;5063;50.878;4.742;2023-06-10T09:33:46;7.53;;;5.63;;
10045;SDS011;5063;50.878;4.742;2023-06-10T09:36:21;7.38;;;5.57;;
10045;SDS011;5063;50.878;4.742;2023-06-10T09:38:49;5.55;;;5.05;;
10045;SDS011;5063;50.878;4.742;2023-06-10T09:41:18;6.13;;;5.55;;
10045;SDS011;5063;50.878;4.742;2023-06-10T09:43:44;6.40;;;5.53;;
10045;SDS011;5063;50.878;4.742;2023-06-10T09:46:18;6.75;;;5.72;;
10045;SDS011;5063;50.878;4.742;2023-06-10T09:48:45;7.45;;;5.82;;
10045;SDS011;5063;50.878;4.742;2023-06-10T09:51:13;7.72;;;5.50;;
10045;SDS011;5063;50.878;4.742;2023-06-10T09:53:39;6.25;;;5.63;;
10045;SDS011;5063;50.878;4.742;2023-06-10T09:56:05;8.50;;;6.30;;
10045;SDS011;5063;50.878;4.742;2023-06-10T09:58:35;7.68;;;5.88;;
10045;SDS011;5063;50.878;4.742;2023-06-10T10:01:06;7.68;;;6.22;;
10045;SDS011;5063;50.878;4.742;2023-06-10T10:03:51;6.47;;;5.88;;
10045;SDS011;5063;50.878;4.742;2023-06-10T10:06:18;8.32;;;6.10;;
10045;SDS011;5063;50.878;4.742;2023-06-10T10:08:45;6.30;;;5.57;;
10045;SDS011;5063;50.878;4.742;2023-06-10T10:11:18;6.70;;;5.45;;
10045;SDS011;5063;50.878;4.742;2023-06-10T10:13:47;6.28;;;5.68;;
10045;SDS011;5063;50.878;4.742;2023-06-10T10:16:16;7.80;;;6.80;;
10045;SDS011;5063;50.878;4.742;2023-06-10T10:18:59;7.07;;;6.38;;
10045;SDS011;5063;50.878;4.742;2023-06-10T10:21:32;6.38;;;5.63;;
10045;SDS011;5063;50.878;4.742;2023-06-10T10:24:05;8.52;;;5.90;;
10045;SDS011;5063;50.878;4.742;2023-06-10T10:26:38;6.22;;;5.63;;
10045;SDS011;5063;50.878;4.742;2023-06-10T10:29:11;7.72;;;5.28;;
10045;SDS011;5063;50.878;4.742;2023-06-10T10:31:44;9.13;;;5.53;;
10045;SDS011;5063;50.878;4.742;2023-06-10T10:34:19;5.65;;;5.15;;
10045;SDS011;5063;50.878;4.742;2023-06-10T10:36:51;6.25;;;5.75;;
10045;SDS011;5063;50.878;4.742;2023-06-10T10:39:18;5.90;;;5.25;;
10045;SDS011;5063;50.878;4.742;2023-06-10T10:41:44;5.97;;;5.38;;
10045;SDS011;5063;50.878;4.742;2023-06-10T10:44:12;7.03;;;5.68;;
10045;SDS011;5063;50.878;4.742;2023-06-10T10:46:42;7.10;;;5.60;;
10045;SDS011;5063;50.878;4.742;2023-06-10T10:49:09;8.00;;;5.55;;
10045;SDS011;5063;50.878;4.742;2023-06-10T10:51:38;9.27;;;6.28;;
10045;SDS011;5063;50.878;4.742;2023-06-10T10:54:21;6.22;;;5.63;;
10045;SDS011;5063;50.878;4.742;2023-06-10T10:59:43;7.93;;;6.18;;
10045;SDS011;5063;50.878;4.742;2023-06-10T11:03:04;8.98;;;6.30;;
10045;SDS011;5063;50.878;4.742;2023-06-10T11:05:15;5.80;;;5.25;;
10045;SDS011;5063;50.878;4.742;2023-06-10T11:07:51;6.63;;;6.03;;
10045;SDS011;5063;50.878;4.742;2023-06-10T11:10:19;8.15;;;6.00;;
10045;SDS011;5063;50.878;4.742;2023-06-10T11:12:57;7.20;;;5.97;;
10045;SDS011;5063;50.878;4.742;2023-06-10T11:15:24;9.55;;;5.75;;
10045;SDS011;5063;50.878;4.742;2023-06-10T11:18:07;9.02;;;6.38;;
10045;SDS011;5063;50.878;4.742;2023-06-10T11:20:44;6.88;;;6.28;;
10045;SDS011;5063;50.878;4.742;2023-06-10T11:23:10;9.88;;;5.95;;
10045;SDS011;5063;50.878;4.742;2023-06-10T11:25:49;6.78;;;5.68;;
10045;SDS011;5063;50.878;4.742;2023-06-10T11:28:18;6.30;;;5.70;;
10045;SDS011;5063;50.878;4.742;2023-06-10T11:30:45;5.80;;;5.30;;
10045;SDS011;5063;50.878;4.742;2023-06-10T11:33:20;5.60;;;5.07;;
10045;SDS011;5063;50.878;4.742;2023-06-10T11:35:46;4.95;;;4.55;;
10045;SDS011;5063;50.878;4.742;2023-06-10T11:38:12;5.93;;;5.20;;
10045;SDS011;5063;50.878;4.742;2023-06-10T11:40:38;7.90;;;6.00;;
10045;SDS011;5063;50.878;4.742;2023-06-10T11:43:04;7.38;;;5.63;;
10045;SDS011;5063;50.878;4.742;2023-06-10T11:45:30;6.20;;;5.70;;
10045;SDS011;5063;50.878;4.742;2023-06-10T11:47:59;7.80;;;5.97;;
10045;SDS011;5063;50.878;4.742;2023-06-10T11:50:29;7.70;;;5.38;;
10045;SDS011;5063;50.878;4.742;2023-06-10T11:52:56;10.40;;;6.05;;
10045;SDS011;5063;50.878;4.742;2023-06-10T11:55:23;6.60;;;5.93;;
10045;SDS011;5063;50.878;4.742;2023-06-10T11:57:51;5.38;;;4.88;;
10045;SDS011;5063;50.878;4.742;2023-06-10T12:00:23;5.38;;;4.88;;
10045;SDS011;5063;50.878;4.742;2023-06-10T12:02:57;5.80;;;4.80;;
10045;SDS011;5063;50.878;4.742;2023-06-10T12:05:23;7.47;;;4.65;;
10045;SDS011;5063;50.878;4.742;2023-06-10T12:07:50;5.97;;;4.88;;
10045;SDS011;5063;50.878;4.742;2023-06-10T12:10:43;5.65;;;5.05;;
10045;SDS011;5063;50.878;4.742;2023-06-10T12:13:09;4.90;;;4.38;;
10045;SDS011;5063;50.878;4.742;2023-06-10T12:15:35;5.78;;;5.10;;
10045;SDS011;5063;50.878;4.742;2023-06-10T12:18:01;5.50;;;5.00;;
10045;SDS011;5063;50.878;4.742;2023-06-10T12:20:31;6.30;;;4.82;;
10045;SDS011;5063;50.878;4.742;2023-06-10T12:23:08;5.22;;;4.78;;
10045;SDS011;5063;50.878;4.742;2023-06-10T12:25:35;5.93;;;5.43;;
10045;SDS011;5063;50.878;4.742;2023-06-10T12:28:04;5.70;;;5.18;;
10045;SDS011;5063;50.878;4.742;2023-06-10T12:30:31;5.20;;;4.68;;
10045;SDS011;5063;50.878;4.742;2023-06-10T12:32:58;5.65;;;5.05;;
10045;SDS011;5063;50.878;4.742;2023-06-10T12:35:24;5.50;;;5.00;;
10045;SDS011;5063;50.878;4.742;2023-06-10T12:37:58;5.03;;;4.55;;
10045;SDS011;5063;50.878;4.742;2023-06-10T12:40:30;9.02;;;4.95;;
10045;SDS011;5063;50.878;4.742;2023-06-10T12:42:57;7.47;;;4.88;;
10045;SDS011;5063;50.878;4.742;2023-06-10T12:45:33;6.05;;;4.75;;
10045;SDS011;5063;50.878;4.742;2023-06-10T12:48:19;6.95;;;5.75;;
10045;SDS011;5063;50.878;4.742;2023-06-10T12:50:50;5.90;;;5.15;;
10045;SDS011;5063;50.878;4.742;2023-06-10T12:53:18;5.20;;;4.80;;
10045;SDS011;5063;50.878;4.742;2023-06-10T12:55:45;6.38;;;5.68;;
10045;SDS011;5063;50.878;4.742;2023-06-10T12:58:11;5.95;;;5.32;;
10045;SDS011;5063;50.878;4.742;2023-06-10T13:00:37;6.15;;;5.20;;
10045;SDS011;5063;50.878;4.742;2023-06-10T13:03:04;5.90;;;5.00;;
10045;SDS011;5063;50.878;4.742;2023-06-10T13:05:31;5.32;;;4.80;;
10045;SDS011;5063;50.878;4.742;2023-06-10T13:07:58;8.00;;;4.85;;
10045;SDS011;5063;50.878;4.742;2023-06-10T13:10:24;5.68;;;5.18;;
10045;SDS011;5063;50.878;4.742;2023-06-10T13:12:51;5.50;;;5.00;;
10045;SDS011;5063;50.878;4.742;2023-06-10T13:15:19;5.25;;;4.75;;
10045;SDS011;5063;50.878;4.742;2023-06-10T13:17:45;6.20;;;5.70;;
10045;SDS011;5063;50.878;4.742;2023-06-10T13:20:14;6.55;;;5.63;;
10045;SDS011;5063;50.878;4.742;2023-06-10T13:22:41;9.10;;;5.38;;
10045;SDS011;5063;50.878;4.742;2023-06-10T13:25:07;5.85;;;5.22;;
10045;SDS011;5063;50.878;4.742;2023-06-10T13:27:36;6.03;;;5.20;;
10045;SDS011;5063;50.878;4.742;2023-06-10T13:30:07;7.47;;;5.50;;
10045;SDS011;5063;50.878;4.742;2023-06-10T13:32:34;5.88;;;5.20;;
10045;SDS011;5063;50.878;4.742;2023-06-10T13:35:00;5.90;;;5.13;;
10045;SDS011;5063;50.878;4.742;2023-06-10T13:37:26;6.45;;;4.93;;
10045;SDS011;5063;50.878;4.742;2023-06-10T13:39:52;5.13;;;4.63;;
10045;SDS011;5063;50.878;4.742;2023-06-10T13:42:19;6.32;;;5.70;;
10045;SDS011;5063;50.878;4.742;2023-06-10T13:44:45;6.35;;;5.78;;
10045;SDS011;5063;50.878;4.742;2023-06-10T13:47:14;6.43;;;5.32;;
10045;SDS011;5063;50.878;4.742;2023-06-10T13:49:40;6.57;;;5.82;;
10045;SDS011;5063;50.878;4.742;2023-06-10T13:52:06;7.38;;;5.07;;
10045;SDS011;5063;50.878;4.742;2023-06-10T13:54:33;6.15;;;5.18;;
10045;SDS011;5063;50.878;4.742;2023-06-10T13:57:01;6.03;;;5.45;;
10045;SDS011;5063;50.878;4.742;2023-06-10T13:59:27;6.13;;;5.57;;
10045;SDS011;5063;50.878;4.742;2023-06-10T14:01:53;9.40;;;5.72;;
10045;SDS011;5063;50.878;4.742;2023-06-10T14:04:18;5.47;;;4.90;;
10045;SDS011;5063;50.878;4.742;2023-06-10T14:06:44;6.15;;;5.45;;
10045;SDS011;5063;50.878;4.742;2023-06-10T14:09:12;5.13;;;4.72;;
10045;SDS011;5063;50.878;4.742;2023-06-10T14:11:38;5.72;;;5.07;;
10045;SDS011;5063;50.878;4.742;2023-06-10T14:14:04;6.25;;;5.65;;
10045;SDS011;5063;50.878;4.742;2023-06-10T14:16:29;7.68;;;5.88;;
10045;SDS011;5063;50.878;4.742;2023-06-10T14:18:55;5.75;;;5.25;;
10045;SDS011;5063;50.878;4.742;2023-06-10T14:21:21;5.00;;;4.60;;
10045;SDS011;5063;50.878;4.742;2023-06-10T14:23:46;6.75;;;5.30;;
10045;SDS011;5063;50.878;4.742;2023-06-10T14:26:14;7.20;;;5.30;;
10045;SDS011;5063;50.878;4.742;2023-06-10T14:28:40;9.20;;;5.53;;
10045;SDS011;5063;50.878;4.742;2023-06-10T14:31:06;6.25;;;5.25;;
10045;SDS011;5063;50.878;4.742;2023-06-10T14:33:32;6.13;;;5.13;;
10045;SDS011;5063;50.878;4.742;2023-06-10T14:35:58;5.82;;;5.22;;
10045;SDS011;5063;50.878;4.742;2023-06-10T14:38:24;5.82;;;5.15;;
10045;SDS011;5063;50.878;4.742;2023-06-10T14:40:50;5.95;;;4.75;;
10045;SDS011;5063;50.878;4.742;2023-06-10T14:43:17;5.80;;;5.25;;
10045;SDS011;5063;50.878;4.742;2023-06-10T14:45:43;9.43;;;5.55;;
10045;SDS011;5063;50.878;4.742;2023-06-10T14:48:10;5.40;;;4.90;;
10045;SDS011;5063;50.878;4.742;2023-06-10T14:50:36;6.20;;;5.57;;
10045;SDS011;5063;50.878;4.742;2023-06-10T14:53:03;5.35;;;4.85;;
10045;SDS011;5063;50.878;4.742;2023-06-10T14:55:29;5.93;;;5.00;;
10045;SDS011;5063;50.878;4.742;2023-06-10T14:57:55;5.72;;;5.22;;
10045;SDS011;5063;50.878;4.742;2023-06-10T15:00:21;6.82;;;5.45;;
10045;SDS011;5063;50.878;4.742;2023-06-10T15:02:49;5.95;;;5.05;;
10045;SDS011;5063;50.878;4.742;2023-06-10T15:05:16;7.07;;;5.15;;
10045;SDS011;5063;50.878;4.742;2023-06-10T15:07:42;7.40;;;5.97;;
10045;SDS011;5063;50.878;4.742;2023-06-10T15:10:08;5.15;;;4.65;;
10045;SDS011;5063;50.878;4.742;2023-06-10T15:12:35;10.40;;;5.88;;
10045;SDS011;5063;50.878;4.742;2023-06-10T15:15:01;6.25;;;5.25;;